CheckWX is a tool to help pilots better visualize weather data.  It is not intended as a substitute for an official pre-flight weather briefing.

22:33:34 UTC

KSEZ METAR
Sedona Airport
Sedona, Arizona, USA
Current

19 mins ago

KSEZ 082215Z AUTO 18015G24KT 140V220 10SM CLR 35/06 A3003 RMK AO2
Observed
Jul-8 @ 22:15 UTC
Wind
  • 180° at 15 KTS
  • Gusting to 24 KTS
Visibility
10 SM
Flight Rules
VFR
Cloud Levels
  • Clear skies
Temperature
35°C / 95°F
Dewpoint
C / 43°F
Humidity
16%
Altimeter
30.03" Hg
Pressure
1016.92 hPa
Previous

39 mins ago

KSEZ 082155Z AUTO 20012G22KT 140V220 10SM CLR 36/06 A3004 RMK AO2
Observed
Jul-8 @ 21:55 UTC
Wind
  • 200° at 12 KTS
  • Gusting to 22 KTS
Visibility
10 SM
Flight Rules
VFR
Cloud Levels
  • Clear skies
Temperature
36°C / 97°F
Dewpoint
C / 43°F
Humidity
16%
Altimeter
30.04" Hg
Pressure
1017.32 hPa
Previous

59 mins ago

KSEZ 082135Z AUTO 18014G23KT 10SM CLR 36/06 A3004 RMK AO2
Observed
Jul-8 @ 21:35 UTC
Wind
  • 180° at 14 KTS
  • Gusting to 23 KTS
Visibility
10 SM
Flight Rules
VFR
Cloud Levels
  • Clear skies
Temperature
36°C / 97°F
Dewpoint
C / 43°F
Humidity
16%
Altimeter
30.04" Hg
Pressure
1017.32 hPa